sensor_id;sensor_type;location;lat;lon;timestamp;P1;durP1;ratioP1;P2;durP2;ratioP2
76123;SDS011;65173;48.066;20.976;2024-03-22T00:00:13;34.53;;;15.07;;
76123;SDS011;65173;48.066;20.976;2024-03-22T00:03:15;31.60;;;13.95;;
76123;SDS011;65173;48.066;20.976;2024-03-22T00:06:16;28.20;;;14.40;;
76123;SDS011;65173;48.066;20.976;2024-03-22T00:09:18;31.13;;;14.77;;
76123;SDS011;65173;48.066;20.976;2024-03-22T00:12:19;31.45;;;14.13;;
76123;SDS011;65173;48.066;20.976;2024-03-22T00:15:21;29.45;;;13.95;;
76123;SDS011;65173;48.066;20.976;2024-03-22T00:18:23;28.75;;;13.05;;
76123;SDS011;65173;48.066;20.976;2024-03-22T00:21:25;32.20;;;13.97;;
76123;SDS011;65173;48.066;20.976;2024-03-22T00:24:26;32.42;;;13.93;;
76123;SDS011;65173;48.066;20.976;2024-03-22T00:27:28;23.25;;;11.40;;
76123;SDS011;65173;48.066;20.976;2024-03-22T00:30:29;25.17;;;14.47;;
76123;SDS011;65173;48.066;20.976;2024-03-22T00:33:31;30.65;;;15.18;;
76123;SDS011;65173;48.066;20.976;2024-03-22T00:36:35;33.97;;;15.77;;
76123;SDS011;65173;48.066;20.976;2024-03-22T00:39:37;27.75;;;14.75;;
76123;SDS011;65173;48.066;20.976;2024-03-22T00:42:38;33.38;;;14.70;;
76123;SDS011;65173;48.066;20.976;2024-03-22T00:45:40;26.65;;;13.60;;
76123;SDS011;65173;48.066;20.976;2024-03-22T00:48:42;25.75;;;11.93;;
76123;SDS011;65173;48.066;20.976;2024-03-22T00:51:43;22.07;;;12.47;;
76123;SDS011;65173;48.066;20.976;2024-03-22T00:54:46;27.77;;;14.48;;
76123;SDS011;65173;48.066;20.976;2024-03-22T00:57:47;25.42;;;12.95;;
76123;SDS011;65173;48.066;20.976;2024-03-22T01:00:49;26.63;;;12.60;;
76123;SDS011;65173;48.066;20.976;2024-03-22T01:03:51;31.90;;;13.05;;
76123;SDS011;65173;48.066;20.976;2024-03-22T01:06:53;25.55;;;13.35;;
76123;SDS011;65173;48.066;20.976;2024-03-22T01:09:54;30.70;;;13.60;;
76123;SDS011;65173;48.066;20.976;2024-03-22T01:12:56;27.35;;;13.88;;
76123;SDS011;65173;48.066;20.976;2024-03-22T01:15:57;27.67;;;13.10;;
76123;SDS011;65173;48.066;20.976;2024-03-22T01:18:59;23.77;;;12.45;;
76123;SDS011;65173;48.066;20.976;2024-03-22T01:22:00;24.23;;;11.17;;
76123;SDS011;65173;48.066;20.976;2024-03-22T01:25:04;26.75;;;11.98;;
76123;SDS011;65173;48.066;20.976;2024-03-22T01:28:06;25.63;;;11.55;;
76123;SDS011;65173;48.066;20.976;2024-03-22T01:31:08;25.93;;;12.10;;
76123;SDS011;65173;48.066;20.976;2024-03-22T01:34:09;23.75;;;12.95;;
76123;SDS011;65173;48.066;20.976;2024-03-22T01:37:11;24.85;;;13.80;;
76123;SDS011;65173;48.066;20.976;2024-03-22T01:40:13;23.83;;;12.55;;
76123;SDS011;65173;48.066;20.976;2024-03-22T01:43:14;22.42;;;10.80;;
76123;SDS011;65173;48.066;20.976;2024-03-22T01:46:16;18.92;;;10.43;;
76123;SDS011;65173;48.066;20.976;2024-03-22T01:49:18;16.58;;;9.18;;
76123;SDS011;65173;48.066;20.976;2024-03-22T01:52:20;19.30;;;10.43;;
76123;SDS011;65173;48.066;20.976;2024-03-22T01:55:22;19.95;;;11.40;;
76123;SDS011;65173;48.066;20.976;2024-03-22T01:58:23;23.67;;;11.25;;
76123;SDS011;65173;48.066;20.976;2024-03-22T02:01:25;21.37;;;10.07;;
76123;SDS011;65173;48.066;20.976;2024-03-22T02:04:27;19.80;;;11.18;;
76123;SDS011;65173;48.066;20.976;2024-03-22T02:07:29;25.40;;;10.77;;
76123;SDS011;65173;48.066;20.976;2024-03-22T02:10:31;19.27;;;10.85;;
76123;SDS011;65173;48.066;20.976;2024-03-22T02:13:33;22.55;;;10.43;;
76123;SDS011;65173;48.066;20.976;2024-03-22T02:16:34;24.08;;;11.43;;
76123;SDS011;65173;48.066;20.976;2024-03-22T02:19:36;21.17;;;11.02;;
76123;SDS011;65173;48.066;20.976;2024-03-22T02:22:37;21.23;;;10.27;;
76123;SDS011;65173;48.066;20.976;2024-03-22T02:25:39;20.52;;;11.95;;
76123;SDS011;65173;48.066;20.976;2024-03-22T02:28:41;28.23;;;11.75;;
76123;SDS011;65173;48.066;20.976;2024-03-22T02:31:42;26.97;;;12.10;;
76123;SDS011;65173;48.066;20.976;2024-03-22T02:34:44;23.52;;;10.55;;
76123;SDS011;65173;48.066;20.976;2024-03-22T02:37:45;17.92;;;10.00;;
76123;SDS011;65173;48.066;20.976;2024-03-22T02:40:47;17.05;;;9.65;;
76123;SDS011;65173;48.066;20.976;2024-03-22T02:43:50;19.13;;;10.18;;
76123;SDS011;65173;48.066;20.976;2024-03-22T02:46:51;24.67;;;10.20;;
76123;SDS011;65173;48.066;20.976;2024-03-22T02:49:53;18.13;;;9.73;;
76123;SDS011;65173;48.066;20.976;2024-03-22T02:52:54;17.30;;;10.17;;
76123;SDS011;65173;48.066;20.976;2024-03-22T02:55:56;24.35;;;10.70;;
76123;SDS011;65173;48.066;20.976;2024-03-22T02:59:01;22.02;;;11.27;;
76123;SDS011;65173;48.066;20.976;2024-03-22T03:02:03;27.30;;;11.17;;
76123;SDS011;65173;48.066;20.976;2024-03-22T03:05:07;18.98;;;9.98;;
76123;SDS011;65173;48.066;20.976;2024-03-22T03:08:09;25.88;;;11.90;;
76123;SDS011;65173;48.066;20.976;2024-03-22T03:11:11;19.13;;;11.15;;
76123;SDS011;65173;48.066;20.976;2024-03-22T03:14:13;18.55;;;11.70;;
76123;SDS011;65173;48.066;20.976;2024-03-22T03:17:14;26.00;;;12.88;;
76123;SDS011;65173;48.066;20.976;2024-03-22T03:20:16;22.75;;;11.40;;
76123;SDS011;65173;48.066;20.976;2024-03-22T03:23:18;24.70;;;9.07;;
76123;SDS011;65173;48.066;20.976;2024-03-22T03:26:20;24.65;;;10.90;;
76123;SDS011;65173;48.066;20.976;2024-03-22T03:29:21;20.33;;;10.15;;
76123;SDS011;65173;48.066;20.976;2024-03-22T03:32:23;23.60;;;10.90;;
76123;SDS011;65173;48.066;20.976;2024-03-22T03:35:26;23.05;;;10.95;;
76123;SDS011;65173;48.066;20.976;2024-03-22T03:38:28;17.17;;;10.40;;
76123;SDS011;65173;48.066;20.976;2024-03-22T03:41:29;20.98;;;10.45;;
76123;SDS011;65173;48.066;20.976;2024-03-22T03:44:33;20.50;;;10.43;;
76123;SDS011;65173;48.066;20.976;2024-03-22T03:47:34;17.70;;;10.18;;
76123;SDS011;65173;48.066;20.976;2024-03-22T03:50:36;19.88;;;10.57;;
76123;SDS011;65173;48.066;20.976;2024-03-22T03:53:37;24.67;;;11.10;;
76123;SDS011;65173;48.066;20.976;2024-03-22T03:56:39;18.38;;;9.98;;
76123;SDS011;65173;48.066;20.976;2024-03-22T03:59:41;20.75;;;10.13;;
76123;SDS011;65173;48.066;20.976;2024-03-22T04:02:42;20.30;;;10.80;;
76123;SDS011;65173;48.066;20.976;2024-03-22T04:05:44;19.33;;;10.30;;
76123;SDS011;65173;48.066;20.976;2024-03-22T04:08:46;22.42;;;10.65;;
76123;SDS011;65173;48.066;20.976;2024-03-22T04:11:50;31.05;;;13.40;;
76123;SDS011;65173;48.066;20.976;2024-03-22T04:14:52;25.65;;;11.50;;
76123;SDS011;65173;48.066;20.976;2024-03-22T04:17:56;22.77;;;11.02;;
76123;SDS011;65173;48.066;20.976;2024-03-22T04:20:57;21.25;;;9.93;;
76123;SDS011;65173;48.066;20.976;2024-03-22T04:24:00;21.70;;;9.30;;
76123;SDS011;65173;48.066;20.976;2024-03-22T04:27:01;15.07;;;9.15;;
76123;SDS011;65173;48.066;20.976;2024-03-22T04:30:03;16.27;;;9.10;;
76123;SDS011;65173;48.066;20.976;2024-03-22T04:33:05;20.10;;;10.37;;
76123;SDS011;65173;48.066;20.976;2024-03-22T04:36:07;16.75;;;9.02;;
76123;SDS011;65173;48.066;20.976;2024-03-22T04:39:10;23.20;;;10.25;;
76123;SDS011;65173;48.066;20.976;2024-03-22T04:42:13;16.25;;;10.50;;
76123;SDS011;65173;48.066;20.976;2024-03-22T04:45:14;22.42;;;11.10;;
76123;SDS011;65173;48.066;20.976;2024-03-22T04:48:17;15.30;;;8.93;;
76123;SDS011;65173;48.066;20.976;2024-03-22T04:51:19;20.40;;;11.25;;
76123;SDS011;65173;48.066;20.976;2024-03-22T04:54:20;21.20;;;11.33;;
76123;SDS011;65173;48.066;20.976;2024-03-22T04:57:22;16.83;;;9.18;;
76123;SDS011;65173;48.066;20.976;2024-03-22T05:00:23;16.15;;;9.75;;
76123;SDS011;65173;48.066;20.976;2024-03-22T05:03:26;20.73;;;11.37;;
76123;SDS011;65173;48.066;20.976;2024-03-22T05:06:27;18.38;;;8.98;;
76123;SDS011;65173;48.066;20.976;2024-03-22T05:09:29;25.27;;;12.30;;
76123;SDS011;65173;48.066;20.976;2024-03-22T05:12:33;20.02;;;9.50;;
76123;SDS011;65173;48.066;20.976;2024-03-22T05:15:34;22.27;;;11.35;;
76123;SDS011;65173;48.066;20.976;2024-03-22T05:18:36;21.58;;;10.30;;
76123;SDS011;65173;48.066;20.976;2024-03-22T05:21:37;22.48;;;10.57;;
76123;SDS011;65173;48.066;20.976;2024-03-22T05:24:39;20.23;;;11.87;;
76123;SDS011;65173;48.066;20.976;2024-03-22T05:27:41;27.67;;;14.02;;
76123;SDS011;65173;48.066;20.976;2024-03-22T05:30:43;28.33;;;13.55;;
76123;SDS011;65173;48.066;20.976;2024-03-22T05:33:45;26.03;;;14.27;;
76123;SDS011;65173;48.066;20.976;2024-03-22T05:36:47;27.25;;;13.55;;
76123;SDS011;65173;48.066;20.976;2024-03-22T05:39:49;31.17;;;14.18;;
76123;SDS011;65173;48.066;20.976;2024-03-22T05:42:51;29.45;;;12.10;;
76123;SDS011;65173;48.066;20.976;2024-03-22T05:45:52;27.58;;;13.25;;
76123;SDS011;65173;48.066;20.976;2024-03-22T05:48:54;21.10;;;11.90;;
76123;SDS011;65173;48.066;20.976;2024-03-22T05:51:55;22.83;;;10.10;;
76123;SDS011;65173;48.066;20.976;2024-03-22T05:54:57;18.97;;;10.03;;
76123;SDS011;65173;48.066;20.976;2024-03-22T05:57:58;16.23;;;8.32;;
76123;SDS011;65173;48.066;20.976;2024-03-22T06:00:59;17.75;;;8.95;;
76123;SDS011;65173;48.066;20.976;2024-03-22T06:04:01;23.47;;;11.50;;
76123;SDS011;65173;48.066;20.976;2024-03-22T06:07:03;18.58;;;10.13;;
76123;SDS011;65173;48.066;20.976;2024-03-22T06:10:05;19.83;;;10.27;;
76123;SDS011;65173;48.066;20.976;2024-03-22T06:13:07;21.73;;;9.98;;
76123;SDS011;65173;48.066;20.976;2024-03-22T06:16:09;17.55;;;9.15;;
76123;SDS011;65173;48.066;20.976;2024-03-22T06:19:10;16.08;;;10.27;;
76123;SDS011;65173;48.066;20.976;2024-03-22T06:22:12;22.35;;;10.68;;
76123;SDS011;65173;48.066;20.976;2024-03-22T06:25:13;24.10;;;10.87;;
76123;SDS011;65173;48.066;20.976;2024-03-22T06:28:15;25.65;;;12.70;;
76123;SDS011;65173;48.066;20.976;2024-03-22T06:31:16;23.55;;;11.55;;
76123;SDS011;65173;48.066;20.976;2024-03-22T06:34:18;20.73;;;10.77;;
76123;SDS011;65173;48.066;20.976;2024-03-22T06:37:20;22.15;;;10.82;;
76123;SDS011;65173;48.066;20.976;2024-03-22T06:40:21;18.95;;;11.48;;
76123;SDS011;65173;48.066;20.976;2024-03-22T06:43:23;21.48;;;11.55;;
76123;SDS011;65173;48.066;20.976;2024-03-22T06:46:24;17.98;;;10.30;;
76123;SDS011;65173;48.066;20.976;2024-03-22T06:49:26;20.55;;;10.93;;
76123;SDS011;65173;48.066;20.976;2024-03-22T06:52:27;20.77;;;11.70;;
76123;SDS011;65173;48.066;20.976;2024-03-22T06:55:29;21.00;;;11.23;;
76123;SDS011;65173;48.066;20.976;2024-03-22T06:58:30;19.83;;;11.05;;
76123;SDS011;65173;48.066;20.976;2024-03-22T07:01:32;19.58;;;11.65;;
76123;SDS011;65173;48.066;20.976;2024-03-22T07:04:34;18.43;;;12.63;;
76123;SDS011;65173;48.066;20.976;2024-03-22T07:07:35;23.75;;;10.55;;
76123;SDS011;65173;48.066;20.976;2024-03-22T07:10:40;19.63;;;11.27;;
76123;SDS011;65173;48.066;20.976;2024-03-22T07:13:43;20.10;;;10.48;;
76123;SDS011;65173;48.066;20.976;2024-03-22T07:16:44;21.83;;;10.80;;
76123;SDS011;65173;48.066;20.976;2024-03-22T07:19:46;19.55;;;9.80;;
76123;SDS011;65173;48.066;20.976;2024-03-22T07:22:47;21.17;;;10.57;;
76123;SDS011;65173;48.066;20.976;2024-03-22T07:25:49;18.10;;;10.23;;
76123;SDS011;65173;48.066;20.976;2024-03-22T07:28:50;18.02;;;10.30;;
76123;SDS011;65173;48.066;20.976;2024-03-22T07:31:52;17.77;;;9.23;;
76123;SDS011;65173;48.066;20.976;2024-03-22T07:34:56;18.03;;;8.67;;
76123;SDS011;65173;48.066;20.976;2024-03-22T07:37:59;18.60;;;8.90;;
76123;SDS011;65173;48.066;20.976;2024-03-22T07:41:00;23.15;;;10.93;;
76123;SDS011;65173;48.066;20.976;2024-03-22T07:44:02;26.08;;;10.43;;
76123;SDS011;65173;48.066;20.976;2024-03-22T07:47:04;17.17;;;8.30;;
76123;SDS011;65173;48.066;20.976;2024-03-22T07:50:06;20.38;;;9.93;;
76123;SDS011;65173;48.066;20.976;2024-03-22T07:53:08;15.27;;;9.07;;
76123;SDS011;65173;48.066;20.976;2024-03-22T07:56:10;21.53;;;10.07;;
76123;SDS011;65173;48.066;20.976;2024-03-22T07:59:12;21.80;;;10.48;;
76123;SDS011;65173;48.066;20.976;2024-03-22T08:02:13;23.33;;;11.20;;
76123;SDS011;65173;48.066;20.976;2024-03-22T08:05:15;23.93;;;12.03;;
76123;SDS011;65173;48.066;20.976;2024-03-22T08:08:17;42.47;;;16.38;;
76123;SDS011;65173;48.066;20.976;2024-03-22T08:11:19;22.25;;;11.88;;
76123;SDS011;65173;48.066;20.976;2024-03-22T08:14:20;20.65;;;9.88;;
76123;SDS011;65173;48.066;20.976;2024-03-22T08:17:22;21.50;;;11.43;;
76123;SDS011;65173;48.066;20.976;2024-03-22T08:20:24;17.00;;;10.35;;
76123;SDS011;65173;48.066;20.976;2024-03-22T08:23:26;22.75;;;10.40;;
76123;SDS011;65173;48.066;20.976;2024-03-22T08:26:27;11.93;;;7.63;;
76123;SDS011;65173;48.066;20.976;2024-03-22T08:29:29;21.55;;;11.07;;
76123;SDS011;65173;48.066;20.976;2024-03-22T08:32:30;24.67;;;11.93;;
76123;SDS011;65173;48.066;20.976;2024-03-22T08:35:32;18.90;;;9.73;;
76123;SDS011;65173;48.066;20.976;2024-03-22T08:38:34;19.08;;;10.32;;
76123;SDS011;65173;48.066;20.976;2024-03-22T08:41:41;18.85;;;11.18;;
76123;SDS011;65173;48.066;20.976;2024-03-22T08:44:43;23.02;;;11.68;;
76123;SDS011;65173;48.066;20.976;2024-03-22T08:47:44;17.27;;;9.57;;
76123;SDS011;65173;48.066;20.976;2024-03-22T08:50:49;18.02;;;11.05;;
76123;SDS011;65173;48.066;20.976;2024-03-22T08:53:50;24.13;;;12.10;;
76123;SDS011;65173;48.066;20.976;2024-03-22T08:56:52;16.27;;;9.07;;
76123;SDS011;65173;48.066;20.976;2024-03-22T08:59:56;20.88;;;9.10;;
76123;SDS011;65173;48.066;20.976;2024-03-22T09:02:57;20.08;;;11.88;;
76123;SDS011;65173;48.066;20.976;2024-03-22T09:05:59;18.20;;;9.67;;
76123;SDS011;65173;48.066;20.976;2024-03-22T09:09:00;17.55;;;10.10;;
76123;SDS011;65173;48.066;20.976;2024-03-22T09:12:03;22.60;;;10.65;;
76123;SDS011;65173;48.066;20.976;2024-03-22T09:15:06;23.45;;;12.23;;
76123;SDS011;65173;48.066;20.976;2024-03-22T09:18:08;25.38;;;12.18;;
76123;SDS011;65173;48.066;20.976;2024-03-22T09:21:34;26.45;;;12.13;;
76123;SDS011;65173;48.066;20.976;2024-03-22T09:24:36;24.88;;;11.05;;
76123;SDS011;65173;48.066;20.976;2024-03-22T09:27:39;21.40;;;10.73;;
76123;SDS011;65173;48.066;20.976;2024-03-22T09:30:40;23.80;;;11.32;;
76123;SDS011;65173;48.066;20.976;2024-03-22T09:33:44;18.63;;;10.65;;
76123;SDS011;65173;48.066;20.976;2024-03-22T09:36:46;20.67;;;11.10;;
76123;SDS011;65173;48.066;20.976;2024-03-22T09:39:48;20.90;;;10.38;;
76123;SDS011;65173;48.066;20.976;2024-03-22T09:42:49;21.67;;;10.57;;
76123;SDS011;65173;48.066;20.976;2024-03-22T09:45:54;16.10;;;9.25;;
76123;SDS011;65173;48.066;20.976;2024-03-22T09:48:56;18.02;;;10.63;;
76123;SDS011;65173;48.066;20.976;2024-03-22T09:52:27;26.40;;;11.02;;
76123;SDS011;65173;48.066;20.976;2024-03-22T09:55:29;22.52;;;11.02;;
76123;SDS011;65173;48.066;20.976;2024-03-22T09:58:32;14.30;;;8.47;;
76123;SDS011;65173;48.066;20.976;2024-03-22T10:01:35;18.65;;;10.70;;
76123;SDS011;65173;48.066;20.976;2024-03-22T10:04:37;19.58;;;9.02;;
76123;SDS011;65173;48.066;20.976;2024-03-22T10:07:40;18.27;;;9.93;;
76123;SDS011;65173;48.066;20.976;2024-03-22T10:10:42;9.55;;;6.18;;
76123;SDS011;65173;48.066;20.976;2024-03-22T10:13:44;17.33;;;9.55;;
76123;SDS011;65173;48.066;20.976;2024-03-22T10:16:47;18.92;;;10.52;;
76123;SDS011;65173;48.066;20.976;2024-03-22T10:19:51;16.70;;;9.77;;
76123;SDS011;65173;48.066;20.976;2024-03-22T10:22:57;19.55;;;9.77;;
76123;SDS011;65173;48.066;20.976;2024-03-22T10:26:00;17.70;;;9.05;;
76123;SDS011;65173;48.066;20.976;2024-03-22T10:29:05;17.37;;;8.43;;
76123;SDS011;65173;48.066;20.976;2024-03-22T10:32:08;16.83;;;9.05;;
76123;SDS011;65173;48.066;20.976;2024-03-22T10:35:29;17.92;;;9.48;;
76123;SDS011;65173;48.066;20.976;2024-03-22T10:38:52;23.63;;;11.07;;
76123;SDS011;65173;48.066;20.976;2024-03-22T10:42:13;17.95;;;9.45;;
76123;SDS011;65173;48.066;20.976;2024-03-22T10:45:43;20.83;;;9.93;;
76123;SDS011;65173;48.066;20.976;2024-03-22T10:49:17;19.77;;;9.50;;
76123;SDS011;65173;48.066;20.976;2024-03-22T10:52:51;22.33;;;10.93;;
76123;SDS011;65173;48.066;20.976;2024-03-22T10:56:25;17.67;;;10.10;;
76123;SDS011;65173;48.066;20.976;2024-03-22T11:00:01;15.50;;;8.93;;
76123;SDS011;65173;48.066;20.976;2024-03-22T11:03:03;18.43;;;10.20;;
76123;SDS011;65173;48.066;20.976;2024-03-22T11:06:07;16.98;;;8.63;;
76123;SDS011;65173;48.066;20.976;2024-03-22T11:09:08;17.75;;;9.07;;
76123;SDS011;65173;48.066;20.976;2024-03-22T11:12:14;12.13;;;8.37;;
76123;SDS011;65173;48.066;20.976;2024-03-22T11:15:16;14.50;;;6.88;;
76123;SDS011;65173;48.066;20.976;2024-03-22T11:18:19;14.48;;;8.30;;
76123;SDS011;65173;48.066;20.976;2024-03-22T11:21:40;15.85;;;7.25;;
76123;SDS011;65173;48.066;20.976;2024-03-22T11:24:44;14.38;;;6.63;;
76123;SDS011;65173;48.066;20.976;2024-03-22T11:27:46;13.43;;;7.57;;
76123;SDS011;65173;48.066;20.976;2024-03-22T11:31:06;23.70;;;9.82;;
76123;SDS011;65173;48.066;20.976;2024-03-22T11:34:08;17.13;;;8.30;;
76123;SDS011;65173;48.066;20.976;2024-03-22T11:37:09;21.45;;;9.40;;
76123;SDS011;65173;48.066;20.976;2024-03-22T11:40:11;13.32;;;7.70;;
76123;SDS011;65173;48.066;20.976;2024-03-22T11:43:13;14.40;;;6.97;;
76123;SDS011;65173;48.066;20.976;2024-03-22T11:46:17;10.32;;;5.47;;
76123;SDS011;65173;48.066;20.976;2024-03-22T11:49:19;8.75;;;5.30;;
76123;SDS011;65173;48.066;20.976;2024-03-22T11:52:40;12.18;;;5.55;;
76123;SDS011;65173;48.066;20.976;2024-03-22T11:55:45;12.25;;;6.03;;
76123;SDS011;65173;48.066;20.976;2024-03-22T11:58:47;11.63;;;6.03;;
76123;SDS011;65173;48.066;20.976;2024-03-22T12:01:52;11.35;;;6.43;;
76123;SDS011;65173;48.066;20.976;2024-03-22T12:04:53;14.30;;;5.27;;
76123;SDS011;65173;48.066;20.976;2024-03-22T12:07:55;9.52;;;5.25;;
76123;SDS011;65173;48.066;20.976;2024-03-22T12:10:57;7.38;;;4.20;;
76123;SDS011;65173;48.066;20.976;2024-03-22T12:13:59;10.00;;;4.80;;
76123;SDS011;65173;48.066;20.976;2024-03-22T12:17:04;5.53;;;2.80;;
76123;SDS011;65173;48.066;20.976;2024-03-22T12:20:08;6.75;;;3.20;;
76123;SDS011;65173;48.066;20.976;2024-03-22T12:23:16;11.73;;;5.22;;
76123;SDS011;65173;48.066;20.976;2024-03-22T12:26:18;7.93;;;4.30;;
76123;SDS011;65173;48.066;20.976;2024-03-22T12:29:19;10.95;;;5.78;;
76123;SDS011;65173;48.066;20.976;2024-03-22T12:32:21;10.68;;;3.63;;
76123;SDS011;65173;48.066;20.976;2024-03-22T12:35:23;11.30;;;4.33;;
76123;SDS011;65173;48.066;20.976;2024-03-22T12:38:24;18.20;;;5.68;;
76123;SDS011;65173;48.066;20.976;2024-03-22T12:41:27;9.23;;;4.70;;
76123;SDS011;65173;48.066;20.976;2024-03-22T12:44:30;9.33;;;4.70;;
76123;SDS011;65173;48.066;20.976;2024-03-22T12:47:31;8.98;;;4.78;;
76123;SDS011;65173;48.066;20.976;2024-03-22T12:50:33;11.13;;;4.60;;
76123;SDS011;65173;48.066;20.976;2024-03-22T12:53:39;8.10;;;4.65;;
76123;SDS011;65173;48.066;20.976;2024-03-22T12:56:41;8.55;;;3.75;;
76123;SDS011;65173;48.066;20.976;2024-03-22T12:59:42;9.07;;;3.80;;
76123;SDS011;65173;48.066;20.976;2024-03-22T13:02:46;5.60;;;3.50;;
76123;SDS011;65173;48.066;20.976;2024-03-22T13:05:48;9.53;;;4.27;;
76123;SDS011;65173;48.066;20.976;2024-03-22T13:08:50;7.55;;;3.42;;
76123;SDS011;65173;48.066;20.976;2024-03-22T13:11:52;11.10;;;5.03;;
76123;SDS011;65173;48.066;20.976;2024-03-22T13:14:54;11.60;;;4.67;;
76123;SDS011;65173;48.066;20.976;2024-03-22T13:17:56;6.05;;;3.50;;
76123;SDS011;65173;48.066;20.976;2024-03-22T13:20:57;10.55;;;5.90;;
76123;SDS011;65173;48.066;20.976;2024-03-22T13:23:59;12.45;;;4.68;;
76123;SDS011;65173;48.066;20.976;2024-03-22T13:27:00;9.60;;;5.57;;
76123;SDS011;65173;48.066;20.976;2024-03-22T13:30:03;10.98;;;5.20;;
76123;SDS011;65173;48.066;20.976;2024-03-22T13:33:06;11.40;;;5.40;;
76123;SDS011;65173;48.066;20.976;2024-03-22T13:36:09;11.67;;;5.10;;
76123;SDS011;65173;48.066;20.976;2024-03-22T13:39:10;9.95;;;4.28;;
76123;SDS011;65173;48.066;20.976;2024-03-22T13:42:12;4.78;;;3.25;;
76123;SDS011;65173;48.066;20.976;2024-03-22T13:45:13;12.13;;;5.00;;
76123;SDS011;65173;48.066;20.976;2024-03-22T13:48:15;11.18;;;4.50;;
76123;SDS011;65173;48.066;20.976;2024-03-22T13:51:16;8.68;;;4.70;;
76123;SDS011;65173;48.066;20.976;2024-03-22T13:54:18;13.02;;;6.38;;
76123;SDS011;65173;48.066;20.976;2024-03-22T13:57:19;10.27;;;4.07;;
76123;SDS011;65173;48.066;20.976;2024-03-22T14:00:21;12.23;;;5.20;;
76123;SDS011;65173;48.066;20.976;2024-03-22T14:03:26;11.10;;;4.20;;
76123;SDS011;65173;48.066;20.976;2024-03-22T14:06:28;11.67;;;4.00;;
76123;SDS011;65173;48.066;20.976;2024-03-22T14:09:29;13.40;;;5.55;;
76123;SDS011;65173;48.066;20.976;2024-03-22T14:12:31;11.55;;;5.93;;
76123;SDS011;65173;48.066;20.976;2024-03-22T14:15:32;18.00;;;5.83;;
76123;SDS011;65173;48.066;20.976;2024-03-22T14:18:36;11.77;;;5.68;;
76123;SDS011;65173;48.066;20.976;2024-03-22T14:21:37;12.68;;;4.78;;
76123;SDS011;65173;48.066;20.976;2024-03-22T14:24:39;11.43;;;5.22;;
76123;SDS011;65173;48.066;20.976;2024-03-22T14:27:41;10.90;;;5.47;;
76123;SDS011;65173;48.066;20.976;2024-03-22T14:30:46;13.98;;;5.55;;
76123;SDS011;65173;48.066;20.976;2024-03-22T14:33:48;7.47;;;4.32;;
76123;SDS011;65173;48.066;20.976;2024-03-22T14:36:49;10.93;;;5.80;;
76123;SDS011;65173;48.066;20.976;2024-03-22T14:39:50;18.58;;;6.00;;
76123;SDS011;65173;48.066;20.976;2024-03-22T14:42:52;15.77;;;5.95;;
76123;SDS011;65173;48.066;20.976;2024-03-22T14:45:54;12.77;;;6.03;;
76123;SDS011;65173;48.066;20.976;2024-03-22T14:48:56;9.80;;;4.90;;
76123;SDS011;65173;48.066;20.976;2024-03-22T14:51:57;14.27;;;6.35;;
76123;SDS011;65173;48.066;20.976;2024-03-22T14:54:58;10.88;;;5.10;;
76123;SDS011;65173;48.066;20.976;2024-03-22T14:58:00;9.18;;;4.82;;
76123;SDS011;65173;48.066;20.976;2024-03-22T15:01:05;11.75;;;5.00;;
76123;SDS011;65173;48.066;20.976;2024-03-22T15:04:07;8.60;;;4.32;;
76123;SDS011;65173;48.066;20.976;2024-03-22T15:07:09;11.90;;;6.90;;
76123;SDS011;65173;48.066;20.976;2024-03-22T15:10:13;11.95;;;5.68;;
76123;SDS011;65173;48.066;20.976;2024-03-22T15:13:15;8.93;;;4.97;;
76123;SDS011;65173;48.066;20.976;2024-03-22T15:16:18;11.50;;;5.83;;
76123;SDS011;65173;48.066;20.976;2024-03-22T15:19:21;15.27;;;5.95;;
76123;SDS011;65173;48.066;20.976;2024-03-22T15:22:23;11.15;;;5.82;;
76123;SDS011;65173;48.066;20.976;2024-03-22T15:25:24;16.67;;;5.22;;
76123;SDS011;65173;48.066;20.976;2024-03-22T15:28:27;8.70;;;4.70;;
76123;SDS011;65173;48.066;20.976;2024-03-22T15:31:29;9.77;;;5.22;;
76123;SDS011;65173;48.066;20.976;2024-03-22T15:34:30;6.63;;;3.90;;
76123;SDS011;65173;48.066;20.976;2024-03-22T15:37:32;10.47;;;5.17;;
76123;SDS011;65173;48.066;20.976;2024-03-22T15:40:33;9.68;;;5.07;;
76123;SDS011;65173;48.066;20.976;2024-03-22T15:43:35;11.35;;;5.90;;
76123;SDS011;65173;48.066;20.976;2024-03-22T15:46:37;9.93;;;6.33;;
76123;SDS011;65173;48.066;20.976;2024-03-22T15:49:38;16.83;;;8.18;;
76123;SDS011;65173;48.066;20.976;2024-03-22T15:52:40;26.50;;;10.88;;
76123;SDS011;65173;48.066;20.976;2024-03-22T15:55:42;30.05;;;13.00;;
76123;SDS011;65173;48.066;20.976;2024-03-22T15:58:43;23.98;;;10.95;;
76123;SDS011;65173;48.066;20.976;2024-03-22T16:01:45;26.58;;;12.30;;
76123;SDS011;65173;48.066;20.976;2024-03-22T16:04:47;17.77;;;8.60;;
76123;SDS011;65173;48.066;20.976;2024-03-22T16:07:49;14.97;;;7.63;;
76123;SDS011;65173;48.066;20.976;2024-03-22T16:10:51;15.50;;;9.35;;
76123;SDS011;65173;48.066;20.976;2024-03-22T16:13:52;17.42;;;7.57;;
76123;SDS011;65173;48.066;20.976;2024-03-22T16:16:54;12.87;;;7.13;;
76123;SDS011;65173;48.066;20.976;2024-03-22T16:19:56;10.85;;;5.97;;
76123;SDS011;65173;48.066;20.976;2024-03-22T16:22:57;18.20;;;8.27;;
76123;SDS011;65173;48.066;20.976;2024-03-22T16:25:59;15.27;;;8.70;;
76123;SDS011;65173;48.066;20.976;2024-03-22T16:29:00;17.00;;;8.88;;
76123;SDS011;65173;48.066;20.976;2024-03-22T16:32:04;18.05;;;8.90;;
76123;SDS011;65173;48.066;20.976;2024-03-22T16:35:07;22.10;;;10.25;;
76123;SDS011;65173;48.066;20.976;2024-03-22T16:38:09;20.20;;;10.10;;
76123;SDS011;65173;48.066;20.976;2024-03-22T16:41:10;20.23;;;10.88;;
76123;SDS011;65173;48.066;20.976;2024-03-22T16:44:12;18.20;;;9.55;;
76123;SDS011;65173;48.066;20.976;2024-03-22T16:47:16;23.73;;;10.47;;
76123;SDS011;65173;48.066;20.976;2024-03-22T16:50:17;23.08;;;9.73;;
76123;SDS011;65173;48.066;20.976;2024-03-22T16:53:23;19.63;;;10.30;;
76123;SDS011;65173;48.066;20.976;2024-03-22T16:56:25;17.65;;;9.73;;
76123;SDS011;65173;48.066;20.976;2024-03-22T16:59:27;22.10;;;12.32;;
76123;SDS011;65173;48.066;20.976;2024-03-22T17:02:29;38.15;;;17.63;;
76123;SDS011;65173;48.066;20.976;2024-03-22T17:05:30;21.58;;;12.27;;
76123;SDS011;65173;48.066;20.976;2024-03-22T17:08:33;21.80;;;10.20;;
76123;SDS011;65173;48.066;20.976;2024-03-22T17:11:35;19.45;;;10.13;;
76123;SDS011;65173;48.066;20.976;2024-03-22T17:14:36;18.05;;;10.07;;
76123;SDS011;65173;48.066;20.976;2024-03-22T17:17:38;19.70;;;9.03;;
76123;SDS011;65173;48.066;20.976;2024-03-22T17:20:39;20.13;;;9.20;;
76123;SDS011;65173;48.066;20.976;2024-03-22T17:23:43;18.10;;;9.27;;
76123;SDS011;65173;48.066;20.976;2024-03-22T17:26:44;16.25;;;9.10;;
76123;SDS011;65173;48.066;20.976;2024-03-22T17:29:46;22.73;;;9.18;;
76123;SDS011;65173;48.066;20.976;2024-03-22T17:32:47;21.92;;;10.10;;
76123;SDS011;65173;48.066;20.976;2024-03-22T17:35:49;22.63;;;9.95;;
76123;SDS011;65173;48.066;20.976;2024-03-22T17:38:50;21.17;;;10.27;;
76123;SDS011;65173;48.066;20.976;2024-03-22T17:41:52;24.05;;;11.15;;